Terminal Aerodrome Forecast
Issued by NWS

Home | Current Version | Previous Version | Text Only | Print | Product List | Glossary On
Versions: 1 2 3 4 5 6 7 8 9 10 11 12 13 14 15 16 17 18 19 20 21 22 23 24
515
FTUS41 KBUF 192106 AAA
TAFJHW
TAF AMD
KJHW 192106Z 1921/2018 28010KT P6SM SKC
     FM200100 30006KT P6SM SKC
     FM200600 32004KT P6SM SCT015
     FM201400 02005KT P6SM SCT015
      AMD LTD TO CLD VIS AND WIND=

USA.gov is the U.S. government's official web portal to all federal, state and local government web resources and services.